ADDS TAF Board (Experimental) INFO Settings
IDs: Format: Expanded Condensed

KEWR - Newark Intl, NJ, US

Issued at 0535 UTC 30 May 2015
Updated at: 0826 UTC 30 May 2015
Time0751Z 30/09Z 30/10Z 30/11Z 30/12Z 30/13Z 30/14Z 30/15Z 30/16Z 30/17Z 30/18Z 30/19Z 30/20Z 30/21Z
Type OBS PRVL PRVL
  [TEMP]  
PRVL
  [TEMP]  
PRVL PRVL PRVL PRVL PRVL PRVL PRVL PRVL PRVL PRVL
VIS 10 5 5 5 5 >6 >6 >6 >6 >6 >6 >6 >6 >6
CIG 250 250 250
  [5]  
250
  [5]  
250 250 250 250 250 250 250 250 250 250
Cover BKN BKN BKN
  [BKN]  
BKN
  [BKN]  
BKN BKN BKN BKN BKN BKN BKN BKN BKN BKN
FltCat VFR MVFR MVFR
  [IFR]  
MVFR
  [IFR]  
MVFR VFR VFR VFR VFR VFR VFR VFR VFR VFR
WX -- BR BR
  [--]  
BR
  [--]  
BR -- -- -- -- -- -- -- -- --
WDir 190 VRB VRB
[VRB]
VRB
[VRB]
VRB 190 190 190 190 190 190 190 190 190
WSpd 4 3 3
  [3]  
3
  [3]  
3 12 12 12 12 13 13 13 13 13
WGst -- -- --
  [--]  
--
  [--]  
-- -- -- -- -- 21 21 21 21 21
R04/22
XWnd -1 VRB 1 1 VRB -3 -3 -3 -3 -4 -4 -4 -4 -4
XGst -- -- 0 0 -- -- -- -- -- -6 -6 -6 -6 -6
HWnd -4 VRB 3 3 VRB -12 -12 -12 -12 -12 -12 -12 -12 -12
HGst -- -- 0 0 -- -- -- -- -- -20 -20 -20 -20 -20
R11/29
XWnd -4 VRB 3 3 VRB -12 -12 -12 -12 -13 -13 -13 -13 -13
XGst -- -- 0 0 -- -- -- -- -- -21 -21 -21 -21 -21
HWnd -0 VRB -0 -0 VRB -1 -1 -1 -1 -1 -1 -1 -1 -1
HGst -- -- 0 0 -- -- -- -- -- -2 -2 -2 -2 -2

NOTE: TEMPO conditions in [brackets]. Keep in mind TEMPO conditions might be better (lower impact) than prevailing conditions.

Raw TAF
KEWR 300535Z 3006/3112 VRB03KT P6SM BKN250
  FM300900 VRB03KT 5SM BR SCT005 BKN250
  TEMPO 3010/3012 BKN005
  FM301300 19012KT P6SM FEW015 BKN250
  FM301700 19013G21KT P6SM SCT040 BKN250
  FM310200 20009KT P6SM SCT040 SCT250
  FM310900 20006KT P6SM BKN040


Raw METAR
KEWR 300751Z 19004KT 10SM BKN250 19/17 A3019 RMK AO2 SLP224 T01890167
KEWR 300651Z 17005KT 10SM BKN250 19/17 A3019 RMK AO2 SLP223 T01940167
KEWR 300551Z 14005KT 10SM BKN250 20/17 A3020 RMK AO2 SLP227 T02000167 10217 20183 58010

METAR Board
Radar Display
Forecast Discussion

TAF Board Legend

Potential Impact
Threat None Slight Moderate High
Visibility (sm) ≥5.1 5.1>X≥3 3>X≥1 <1
Ceiling (100 ft) ≥30.1 30.1>X≥10 10>X≥5 <5
Wind Speed (kt) <10 10≤X<20 20≤X<30 ≥30
Wind Gust (kt) <15 15≤X<25 25≤X<35 ≥35
Weather No Wx Reported VCTS,-TS,-FZRA,SN TS,FZRA +TS,+FZRA,+SN